Hovedside
METAR-TAF:

METAR-TAF

Lufthavner :

Haugesund, Norge

Haugesund lufthavn

breddegrad: 59-21N, lengdegrad: 005-13E, høyde over havet: 2 m

Gjeldene værobservasjon

Denne rapporten ble laget for 44 minutter siden, klokken 21:50 UTC
Vind 3 kt fra Nordøst
Temperatur 15°C
Luftfuktighet 88%
Trykk 1016 hPa
Sikt 10 km eller mer
lett regn

METAR: ENHD 242150Z AUTO 04003KT 9999 -RA BKN064/// 15/13 Q1016

Tid: 00:34 (22:34 UTC)

Varsel

Denne rapporten ble laget for 3 timer og 4 minutter siden, klokken 19:30 UTC
Varsel gyldig fra 24. klokken 19 UTC til 24. klokken 21 UTC
Vind 5 kt fra skiftende retning
Sikt 10 km eller mer
Få skyer i en høyde av 1000 ft
Brutte skyer i en høyde av 5000 ft
Sannsynlighet 40%
fra 24. klokken 19 UTC til 24. klokken 21 UTC
Brutte skyer i en høyde av 800 ft

TAF: ENHD 241930Z 2419/2421 VRB05KT 9999 FEW010 BKN050 PROB40 2419/2421 BKN008

Værobservasjoner og værvarsel for over 4000 flyplasser (METAR- og TAF-rapporter).

Tilgjengelige stasjoner er representert av de røde og gule prikkene på kartet.

Hold musepekeren over prikken for å se navnet på stasjonen.

Klikk så for å se værobservasjoner og -varsler.

For å forandre kartet kan du klikke på den grønne knappen med svart kryss for å zoome inn, på den grønne knappen med strek for å zoome ut, eller på de grønne pilene for å se tilstøtende kart.


METAR-TAF: